| time (UTC) | temp F | wind direction | speed MPH | gust MPH | rain 1hr in | rain 24hr in | rain mn in | humidity % | barometer mb |
| 20260509200012 | 53 | 44 | 0.0 | 0.0 | 0.02 | 0.35 | 0.35 | 91 | 1008.6 |
| 20260509194517 | 53 | 259 | 0.0 | 0.0 | 0.05 | 0.35 | 0.35 | 91 | 1008.8 |
| 20260509193008 | 53 | 280 | 0.0 | 0.0 | 0.06 | 0.34 | 0.34 | 92 | 1009.0 |
| 20260509191507 | 53 | 247 | 0.0 | 0.0 | 0.07 | 0.34 | 0.34 | 91 | 1009.1 |
| 20260509190009 | 52 | 278 | 0.0 | 0.0 | 0.07 | 0.33 | 0.33 | 91 | 1009.1 |
| 20260509184506 | 52 | 29 | 0.0 | 0.0 | 0.05 | 0.30 | 0.30 | 90 | 1009.2 |
| 20260509183006 | 52 | 97 | 0.0 | 0.0 | 0.03 | 0.28 | 0.28 | 90 | 1009.1 |
| 20260509181504 | 53 | 109 | 0.0 | 0.0 | 0.02 | 0.27 | 0.27 | 89 | 1009.2 |
| 20260509180003 | 53 | 204 | 0.0 | 0.0 | 0.01 | 0.26 | 0.26 | 88 | 1009.1 |
| 20260509174504 | 53 | 265 | 0.0 | 0.0 | 0.00 | 0.25 | 0.25 | 88 | 1009.1 |
| 20260509173001 | 53 | 256 | 0.0 | 0.0 | 0.00 | 0.25 | 0.25 | 88 | 1009.1 |
| 20260509171500 | 52 | 255 | 0.0 | 0.0 | 0.00 | 0.25 | 0.25 | 88 | 1009.1 |
| 20260509170103 | 52 | 263 | 0.0 | 0.0 | 0.01 | 0.25 | 0.25 | 88 | 1009.1 |
| 20260509164558 | 52 | 292 | 0.0 | 0.0 | 0.01 | 0.25 | 0.25 | 89 | 1009.1 |
| 20260509163110 | 52 | 274 | 0.0 | 0.0 | 0.01 | 0.25 | 0.25 | 89 | 1009.2 |
| 20260509161601 | 52 | 278 | 0.0 | 0.0 | 0.01 | 0.25 | 0.25 | 90 | 1009.4 |
| 20260509160053 | 52 | 291 | 0.0 | 0.0 | 0.01 | 0.24 | 0.24 | 90 | 1009.6 |
| 20260509154554 | 52 | 263 | 0.0 | 0.0 | 0.02 | 0.24 | 0.24 | 90 | 1009.7 |
| 20260509153047 | 51 | 153 | 0.0 | 0.0 | 0.04 | 0.24 | 0.24 | 90 | 1009.9 |
| 20260509151550 | 51 | 101 | 0.0 | 0.0 | 0.05 | 0.24 | 0.24 | 91 | 1010.1 |
| 20260509150040 | 51 | 287 | 0.0 | 0.0 | 0.05 | 0.23 | 0.23 | 92 | 1010.4 |
| 20260509144539 | 50 | 281 | 0.0 | 0.0 | 0.05 | 0.22 | 0.22 | 93 | 1010.5 |
| 20260509143044 | 50 | 262 | 0.0 | 0.0 | 0.03 | 0.20 | 0.20 | 94 | 1010.5 |
| 20260509141540 | 50 | 262 | 0.0 | 0.0 | 0.03 | 0.19 | 0.19 | 94 | 1010.6 |
| 20260509140030 | 50 | 164 | 0.0 | 0.0 | 0.03 | 0.18 | 0.18 | 95 | 1010.5 |
| 20260509134528 | 49 | 163 | 0.0 | 0.0 | 0.03 | 0.17 | 0.17 | 95 | 1010.5 |
| 20260509133024 | 49 | 119 | 0.0 | 0.0 | 0.03 | 0.17 | 0.17 | 95 | 1010.5 |
| 20260509131524 | 49 | 119 | 0.0 | 0.0 | 0.02 | 0.16 | 0.16 | 95 | 1010.7 |
| 20260509130021 | 49 | 119 | 0.0 | 0.0 | 0.01 | 0.15 | 0.15 | 95 | 1010.8 |
| 20260509124519 | 0 | 0.0 | 0.0 | 0.00 | 0.14 | 0.14 | 1010.8 | ||
| 20260509123014 | 0 | 0.0 | 0.0 | 0.00 | 0.14 | 0.14 | 1010.9 | ||
| 20260509121510 | 0 | 0.0 | 0.0 | 0.00 | 0.14 | 0.14 | 1010.9 | ||
| 20260509120007 | 0 | 0.0 | 0.0 | 0.01 | 0.14 | 0.14 | 1011.2 | ||
| 20260509114503 | 0 | 0.0 | 0.0 | 0.03 | 0.14 | 0.14 | 1011.1 | ||
| 20260509113122 | 0 | 0.0 | 0.0 | 0.05 | 0.14 | 0.14 | 1011.0 | ||
| 20260509111601 | 0 | 0.0 | 0.0 | 0.08 | 0.14 | 0.14 | 1011.0 | ||
| 20260509110050 | 47 | 120 | 0.0 | 0.0 | 0.09 | 0.14 | 0.14 | 94 | 1011.1 |
| 20260509104557 | 47 | 119 | 0.0 | 0.0 | 0.06 | 0.11 | 0.11 | 95 | 1011.1 |
| 20260509103056 | 47 | 119 | 0.0 | 0.0 | 0.03 | 0.08 | 0.08 | 95 | 1011.2 |
| 20260509101547 | 47 | 119 | 0.0 | 0.0 | 0.01 | 0.06 | 0.06 | 95 | 1011.0 |
| 20260509100105 | 47 | 117 | 0.0 | 0.0 | 0.00 | 0.05 | 0.05 | 95 | 1010.9 |
| 20260509094551 | 46 | 95 | 0.0 | 0.0 | 0.00 | 0.05 | 0.05 | 95 | 1010.8 |
| 20260509093044 | 46 | 95 | 0.0 | 0.0 | 0.00 | 0.05 | 0.05 | 95 | 1010.9 |
| 20260509091546 | 46 | 95 | 0.0 | 0.0 | 0.00 | 0.05 | 0.05 | 94 | 1010.8 |
| 20260509090039 | 46 | 81 | 0.0 | 0.0 | 0.00 | 0.05 | 0.05 | 94 | 1011.0 |
| 20260509084537 | 46 | 82 | 0.0 | 0.0 | 0.01 | 0.05 | 0.05 | 94 | 1011.1 |
| 20260509083042 | 46 | 287 | 0.0 | 0.0 | 0.01 | 0.05 | 0.05 | 94 | 1011.2 |
| 20260509081534 | 45 | 287 | 0.0 | 0.0 | 0.01 | 0.05 | 0.05 | 93 | 1011.4 |
| 20260509080039 | 45 | 287 | 0.0 | 0.0 | 0.02 | 0.05 | 0.05 | 93 | 1011.7 |
| 20260509074531 | 45 | 287 | 0.0 | 0.0 | 0.01 | 0.04 | 0.04 | 92 | 1011.5 |
| 20260509073029 | 44 | 287 | 0.0 | 0.0 | 0.02 | 0.04 | 0.04 | 92 | 1011.3 |
| 20260509071530 | 44 | 287 | 0.0 | 0.0 | 0.03 | 0.04 | 0.04 | 91 | 1011.5 |
| 20260509070028 | 44 | 287 | 0.0 | 0.0 | 0.02 | 0.03 | 0.03 | 90 | 1011.4 |
| 20260509064530 | 45 | 276 | 0.0 | 0.0 | 0.03 | 0.03 | 0.03 | 89 | 1011.6 |
| 20260509063023 | 45 | 276 | 0.0 | 0.0 | 0.02 | 0.02 | 0.02 | 87 | 1011.8 |
| 20260509061535 | 45 | 276 | 0.0 | 0.0 | 0.01 | 0.01 | 0.01 | 85 | 1011.9 |
| 20260509060020 | 45 | 276 | 0.0 | 0.0 | 0.01 | 0.01 | 0.01 | 83 | 1012.1 |
| 20260509054519 | 45 | 276 | 0.0 | 0.0 | 0.00 | 0.00 | 0.00 | 81 | 1012.2 |
| 20260509053030 | 45 | 276 | 0.0 | 0.0 | 0.00 | 0.00 | 0.00 | 80 | 1012.2 |
| 20260509051517 | 45 | 276 | 0.0 | 0.0 | 0.00 | 0.00 | 0.00 | 79 | 1012.1 |
| 20260509050017 | 45 | 276 | 0.0 | 0.0 | 0.00 | 0.00 | 0.00 | 78 | 1012.0 |
| 20260509044514 | 45 | 286 | 0.0 | 0.0 | 0.00 | 0.00 | 0.00 | 78 | 1012.2 |
| 20260509043011 | 45 | 95 | 0.0 | 0.0 | 0.00 | 0.00 | 0.00 | 78 | 1012.4 |
| 20260509041509 | 45 | 95 | 0.0 | 0.0 | 0.00 | 0.00 | 0.00 | 79 | 1012.4 |
| 20260509040007 | 44 | 95 | 0.0 | 0.0 | 0.00 | 0.00 | 0.00 | 78 | 1012.5 |
| 20260509034506 | 44 | 95 | 0.0 | 0.0 | 0.00 | 0.00 | 0.00 | 78 | 1012.5 |
| 20260509033005 | 44 | 95 | 0.0 | 0.0 | 0.00 | 0.00 | 0.00 | 78 | 1012.4 |
| 20260509031505 | 44 | 95 | 0.0 | 0.0 | 0.00 | 0.00 | 0.00 | 77 | 1012.3 |
| 20260509030005 | 44 | 95 | 0.0 | 0.0 | 0.00 | 0.00 | 0.00 | 76 | 1012.5 |
| 20260509024504 | 45 | 95 | 0.0 | 0.0 | 0.00 | 0.00 | 0.00 | 74 | 1012.6 |
| 20260509023004 | 45 | 95 | 0.0 | 0.0 | 0.00 | 0.00 | 0.00 | 73 | 1012.2 |
| 20260509021503 | 46 | 95 | 0.0 | 0.0 | 0.00 | 0.00 | 0.00 | 71 | 1012.4 |
| 20260509020003 | 48 | 95 | 0.0 | 0.0 | 0.00 | 0.00 | 0.00 | 68 | 1012.5 |
| 20260509014506 | 49 | 95 | 0.0 | 0.0 | 0.00 | 0.00 | 0.00 | 59 | 1012.4 |
| 20260509013002 | 49 | 116 | 0.0 | 0.0 | 0.00 | 0.00 | 0.00 | 59 | 1012.3 |
| 20260509011501 | 50 | 116 | 0.0 | 0.0 | 0.00 | 0.00 | 0.00 | 60 | 1012.2 |
| 20260509010001 | 51 | 116 | 0.0 | 0.0 | 0.00 | 0.00 | 0.00 | 58 | 1012.0 |
| 20260509004600 | 52 | 116 | 0.0 | 0.0 | 0.00 | 0.00 | 0.00 | 53 | 1011.6 |
| 20260509003108 | 52 | 113 | 0.0 | 0.0 | 0.00 | 0.00 | 0.00 | 51 | 1011.5 |
| 20260509001559 | 51 | 102 | 0.0 | 0.0 | 0.00 | 0.00 | 0.00 | 55 | 1011.4 |
| 20260508234558 | 53 | 102 | 0.0 | 0.0 | 0.00 | 0.00 | 0.00 | 51 | 1011.1 |
| 20260508233106 | 54 | 102 | 0.0 | 0.0 | 0.00 | 0.00 | 0.00 | 48 | 1010.8 |
| 20260508231634 | 54 | 102 | 0.0 | 0.0 | 0.00 | 0.00 | 0.00 | 47 | 1010.9 |
| 20260508224608 | 56 | 82 | 0.0 | 0.0 | 0.00 | 0.00 | 0.00 | 44 | 1010.9 |
| 20260508223054 | 56 | 84 | 0.0 | 0.0 | 0.00 | 0.00 | 0.00 | 44 | 1010.9 |
| 20260508221554 | 56 | 109 | 0.0 | 0.0 | 0.00 | 0.00 | 0.00 | 45 | 1010.8 |
| 20260508220053 | 57 | 103 | 0.0 | 0.0 | 0.00 | 0.00 | 0.00 | 44 | 1010.8 |
| 20260508214626 | 59 | 296 | 0.0 | 0.0 | 0.00 | 0.00 | 0.00 | 39 | 1010.9 |
| 20260508213052 | 59 | 316 | 0.0 | 0.0 | 0.00 | 0.00 | 0.00 | 39 | 1011.0 |
| 20260508211548 | 59 | 283 | 0.0 | 0.0 | 0.00 | 0.00 | 0.00 | 40 | 1011.0 |
| 20260508210052 | 59 | 111 | 0.0 | 0.0 | 0.00 | 0.00 | 0.00 | 41 | 1011.1 |
| 20260508204545 | 57 | 290 | 0.0 | 0.0 | 0.00 | 0.00 | 0.00 | 42 | 1011.3 |
| 20260508203046 | 57 | 250 | 0.0 | 0.0 | 0.00 | 0.00 | 0.00 | 43 | 1011.4 |
| 20260508201546 | 56 | 85 | 0.0 | 0.0 | 0.00 | 0.00 | 0.00 | 43 | 1011.6 |